CheckWX is a tool to help pilots better visualize weather data.  It is not intended as a substitute for an official pre-flight weather briefing.

09:39:17 UTC

KONL METAR
The O'neill Municipal-John L Baker Field Airport
O'neill, Nebraska, USA
Current

24 mins ago

KONL 220915Z AUTO 00000KT 1/4SM FG OVC002 09/09 A2932 RMK AO2 T00880085
Observed
May-22 @ 09:15 UTC
Visibility
1/4 SM
Flight Rules
LIFR
Conditions
Fog
Cloud Levels
  • Overcast at 200' AGL
Temperature
C / 48°F
Dewpoint
C / 48°F
Humidity
100%
Altimeter
29.32" Hg
Pressure
992.92 hPa
Previous

44 mins ago

KONL 220855Z AUTO 00000KT 1/4SM FG OVC002 09/09 A2932 RMK AO2 60002 T00880085
Observed
May-22 @ 08:55 UTC
Visibility
1/4 SM
Flight Rules
LIFR
Conditions
Fog
Cloud Levels
  • Overcast at 200' AGL
Temperature
C / 48°F
Dewpoint
C / 48°F
Humidity
100%
Altimeter
29.32" Hg
Pressure
992.92 hPa
Previous

1 hour ago

KONL 220835Z AUTO 00000KT 1/4SM FG OVC002 09/09 A2932 RMK AO2 T00870085
Observed
May-22 @ 08:35 UTC
Visibility
1/4 SM
Flight Rules
LIFR
Conditions
Fog
Cloud Levels
  • Overcast at 200' AGL
Temperature
C / 48°F
Dewpoint
C / 48°F
Humidity
100%
Altimeter
29.32" Hg
Pressure
992.92 hPa